Fort Lauderdale Executive Airport
KFXE : now visible

Airfield :











YOU CAN JOIN US ON...

 
LOGIN :

Register | Disclaimer

   EN    FR    IT 

 









Legend :    VFR   Marginal VFR   IFR   Intensive IFR   Very Intensive IFR
Visi :
Ceiling :
>= 8 km
>= 3000ft
5 to 8 km
1000 to 3000 ft
1500m to 5 km
500 to 1000 ft
800 to 1500m
200 to 500 ft
< 800m
< 200 ft
Symbols :   Thunderstorms  Fog  Heavy snow  Heavy precipitations  Wind > 20 kt






- Airport Elevation : 13 ft


KFXE - Fort Lauderdale Executive

CURRENT METAR :
  • 121753Z 15011KT 3SM +RA FEW034 SCT060 BKN080 27/23 A3004 RMK AO2 RAB43 SLP175 P0005 60005 T02720228 10317 20272 58011

EXPIRED METARs :
  • 121653Z 11009G15KT 10SM FEW035 SCT085 31/23 A3005 RMK AO2 SLP178 T03060228
  • 121553Z 15007KT 10SM FEW032 SCT042 BKN070 30/23 A3007 RMK AO2 SLP185 T03000228

TAF KFXE
Valid from the 12 at 18:00 until the 13 at 18:00 UTC


121751Z 1218/1318 14010KT P6SM SHRA VCTS SCT030CB BKN050
FM130200 VRB03KT P6SM SCT030 SCT250
FM131600 16008KT P6SM VCSH SCT030 BKN050
KZMA FIR / North America



MET'MAP, your aeronautical weather chart ! - Copyright ORBIFLY December 2007 - Disclaimer

ORBIFLY MET'MAP TEAM :

Programming & Development : Alexandra Zaïnal
Concept & original design : Baudouin d'Aumeries
Assistance for programming : Marc-Olivier Méhu
Technical & hardware support : Manuel Goepfert

Contact : metmap@orbifly.com




SOURCES & CREDITS :

   NOAA       Earth
Advisory